Mount Pleasant, Pennsylvania
Current Conditions -  °F | °C
As of 11:53 AM on Friday 24 Oct 2014 (Local Time) from KAGC Reporting Station
Few Clouds Few Clouds  
Wind Chill: 53°   Ceiling: Unl
Heat Index: 53°   Visibility: 8mi
Dew Point: 40°   Wind: 3mph
Humidity: 61%   Direction: NA
Pressure: 30.08"   Gusts: NA
Location:  40.15°N, 79.54°W
Report Text: KAGC 241553Z VRB03KT 8SM FEW025 12/04 A3008 RMK AO2 SLP194 T01170044
Loading
Personal Weather Stations






























Interactive Weather Map
Tropical Storm Tracking
New forecast layout! Learn more

10-Day Weather Forecast

Advertisements
Track Severe Weather on mobile